Time;durP1;ratioP1;P1;durP2;ratioP2;P2;SDS_P1;SDS_P2;PMS_P1;PMS_P2;Temp;Humidity;BMP_temperature;BMP_pressure;BME280_temperature;BME280_humidity;BME280_pressure;Samples;Min_cycle;Max_cycle;Signal;HPM_P1;HPM_P2
2023/01/08 00:01:31;;;;;;;;;5.67;5.33;;;;;13.23;100.00;100309.19;5084414;27;45418;-75
2023/01/08 00:03:57;;;;;;;;;7.33;5.67;;;;;13.19;100.00;100304.28;5079712;27;45587;-75
2023/01/08 00:06:24;;;;;;;;;7.00;7.00;;;;;13.05;100.00;100299.53;5083490;27;45569;-75
2023/01/08 00:08:50;;;;;;;;;7.00;6.67;;;;;13.10;100.00;100299.84;5080626;27;45403;-75
2023/01/08 00:11:16;;;;;;;;;6.00;6.00;;;;;13.07;100.00;100289.31;5082157;27;45504;-75
2023/01/08 00:13:42;;;;;;;;;7.00;5.67;;;;;13.07;100.00;100297.47;5080770;27;45377;-75
2023/01/08 00:16:10;;;;;;;;;11.00;9.67;;;;;13.11;100.00;100286.03;5081726;27;45507;-75
2023/01/08 00:18:36;;;;;;;;;11.67;10.00;;;;;13.13;100.00;100284.03;5081996;27;48063;-77
2023/01/08 00:21:01;;;;;;;;;9.33;6.67;;;;;13.07;100.00;100273.78;5087193;27;45354;-75
2023/01/08 00:23:27;;;;;;;;;6.00;6.00;;;;;13.09;100.00;100281.78;5101400;27;45418;-76
2023/01/08 00:25:52;;;;;;;;;7.67;6.67;;;;;12.99;100.00;100272.97;5106348;27;45749;-76
2023/01/08 00:28:19;;;;;;;;;5.00;5.00;;;;;13.09;100.00;100285.34;5083868;27;46964;-76
2023/01/08 00:30:45;;;;;;;;;9.33;7.00;;;;;13.07;100.00;100279.25;5078208;27;45728;-73
2023/01/08 00:33:11;;;;;;;;;7.00;7.00;;;;;13.00;100.00;100283.69;5100389;27;45368;-76
2023/01/08 00:35:37;;;;;;;;;6.00;6.00;;;;;13.03;100.00;100288.78;5104018;27;45563;-75
2023/01/08 00:38:03;;;;;;;;;4.67;4.67;;;;;12.77;100.00;100288.19;5082165;27;46959;-75
2023/01/08 00:40:28;;;;;;;;;5.00;5.00;;;;;12.93;100.00;100285.41;5098186;27;45342;-75
2023/01/08 00:42:53;;;;;;;;;5.00;3.00;;;;;13.00;100.00;100274.66;5102370;27;45763;-76
2023/01/08 00:45:18;;;;;;;;;5.00;5.00;;;;;13.00;100.00;100272.78;5102394;27;45447;-76
2023/01/08 00:47:44;;;;;;;;;6.00;3.33;;;;;13.06;100.00;100272.09;5081527;27;47218;-75
2023/01/08 00:50:09;;;;;;;;;10.00;6.00;;;;;13.00;100.00;100278.25;5103933;27;45365;-75
2023/01/08 00:52:35;;;;;;;;;1.00;0.00;;;;;13.05;100.00;100269.53;5084892;27;45460;-75
2023/01/08 00:55:00;;;;;;;;;6.67;6.00;;;;;12.83;100.00;100258.34;5104837;27;45300;-75
2023/01/08 00:57:25;;;;;;;;;5.67;2.00;;;;;12.86;100.00;100251.66;5082594;27;48002;-75
2023/01/08 00:59:51;;;;;;;;;6.33;5.33;;;;;13.02;100.00;100243.44;5104357;27;45349;-75
2023/01/08 01:02:16;;;;;;;;;6.67;6.67;;;;;13.08;100.00;100234.56;5102461;27;45862;-76
2023/01/08 01:04:41;;;;;;;;;8.00;5.00;;;;;13.03;100.00;100234.25;5103552;27;45333;-76
2023/01/08 01:07:07;;;;;;;;;5.00;4.00;;;;;12.79;100.00;100228.88;5082868;27;46911;-77
2023/01/08 01:09:32;;;;;;;;;9.67;5.67;;;;;12.92;100.00;100237.38;5103375;27;45345;-76
2023/01/08 01:11:58;;;;;;;;;7.00;4.67;;;;;12.96;100.00;100240.56;5103586;27;46114;-75
2023/01/08 01:14:23;;;;;;;;;10.33;3.67;;;;;12.74;100.00;100234.00;5104769;27;45332;-76
2023/01/08 01:16:49;;;;;;;;;7.00;4.00;;;;;12.90;100.00;100236.69;5102258;27;45337;-76
2023/01/08 01:19:16;;;;;;;;;4.00;4.00;;;;;12.85;100.00;100230.91;5085198;27;45320;-76
2023/01/08 01:21:43;;;;;;;;;7.00;6.00;;;;;12.85;100.00;100231.78;5081305;27;45561;-76
2023/01/08 01:24:11;;;;;;;;;6.33;4.67;;;;;12.74;100.00;100212.19;5103249;27;45496;-76
2023/01/08 01:26:41;;;;;;;;;5.67;5.67;;;;;12.84;100.00;100231.94;5095669;27;46999;-75
2023/01/08 01:29:06;;;;;;;;;6.00;6.00;;;;;12.76;100.00;100237.41;5094489;27;45488;-76
2023/01/08 01:31:32;;;;;;;;;4.00;4.00;;;;;12.81;100.00;100238.56;5081718;27;45342;-76
2023/01/08 01:33:57;;;;;;;;;5.67;5.00;;;;;12.56;100.00;100187.91;5102984;27;45409;-75
2023/01/08 01:36:23;;;;;;;;;6.33;4.67;;;;;12.54;100.00;100202.72;5082120;27;46699;-76
2023/01/08 01:38:51;;;;;;;;;4.33;4.33;;;;;12.64;100.00;100219.75;5102118;27;45591;-76
2023/01/08 01:41:29;;;;;;;;;7.00;4.00;;;;;12.89;100.00;100232.25;5100967;27;45310;-76
2023/01/08 01:43:57;;;;;;;;;4.67;4.67;;;;;12.86;100.00;100240.78;5102705;27;45468;-76
2023/01/08 01:46:34;;;;;;;;;5.00;5.00;;;;;12.89;100.00;100240.44;5102688;27;47578;-77
2023/01/08 01:49:05;;;;;;;;;3.67;3.33;;;;;12.63;100.00;100204.41;5083623;27;45321;-76
2023/01/08 01:51:33;;;;;;;;;4.00;4.00;;;;;12.63;100.00;100209.84;5104388;27;45436;-75
2023/01/08 01:54:01;;;;;;;;;4.67;4.67;;;;;12.73;100.00;100235.88;5102108;27;45590;-76
2023/01/08 01:56:29;;;;;;;;;6.00;3.67;;;;;12.49;100.00;100220.44;5081380;27;46897;-76
2023/01/08 01:58:54;;;;;;;;;3.33;3.00;;;;;12.63;100.00;100250.75;5081915;27;45493;-76
2023/01/08 02:01:21;;;;;;;;;4.67;4.67;;;;;12.51;100.00;100216.69;5085922;27;45476;-76
2023/01/08 02:03:47;;;;;;;;;5.00;3.00;;;;;12.73;100.00;100248.66;5101229;27;45512;-76
2023/01/08 02:06:37;;;;;;;;;4.00;4.00;;;;;12.46;100.00;100234.41;5102611;27;45529;-75
2023/01/08 02:09:26;;;;;;;;;8.00;5.00;;;;;12.61;100.00;100261.81;5084683;27;46088;-76
2023/01/08 02:12:17;;;;;;;;;3.67;2.67;;;;;12.30;100.00;100209.91;5100675;27;45475;-75
2023/01/08 02:14:55;;;;;;;;;2.00;2.00;;;;;12.64;100.00;100264.16;5102658;27;45405;-75
2023/01/08 02:17:34;;;;;;;;;3.00;2.33;;;;;12.47;100.00;100260.66;5103334;27;46511;-75
2023/01/08 02:20:11;;;;;;;;;5.00;4.00;;;;;12.61;100.00;100267.25;5102760;27;45453;-76
2023/01/08 02:22:45;;;;;;;;;11.67;8.67;;;;;12.60;100.00;100253.78;5093690;27;45283;-75
2023/01/08 02:25:29;;;;;;;;;4.00;3.00;;;;;12.41;100.00;100264.06;5101140;27;45222;-74
2023/01/08 02:27:58;;;;;;;;;6.00;3.00;;;;;12.58;100.00;100255.84;5098379;27;46575;-75
2023/01/08 02:30:24;;;;;;;;;3.00;3.00;;;;;12.68;100.00;100257.38;5100999;27;45303;-75
2023/01/08 02:32:49;;;;;;;;;5.33;4.00;;;;;12.41;100.00;100214.16;5099255;27;45388;-75
2023/01/08 02:35:15;;;;;;;;;2.67;2.67;;;;;12.44;100.00;100222.84;5082904;27;45322;-75
2023/01/08 02:37:41;;;;;;;;;3.67;0.67;;;;;12.57;100.00;100248.69;5100668;27;46099;-75
2023/01/08 02:40:15;;;;;;;;;2.67;2.67;;;;;12.75;100.00;100268.41;5100619;27;45435;-75
2023/01/08 02:42:59;;;;;;;;;4.00;2.00;;;;;12.67;100.00;100252.06;5098582;27;45392;-75
2023/01/08 02:45:32;;;;;;;;;3.00;3.00;;;;;12.73;100.00;100248.66;5102091;27;45280;-75
2023/01/08 02:48:20;;;;;;;;;3.00;3.00;;;;;12.76;100.00;100253.75;5100821;27;45549;-75
2023/01/08 02:51:02;;;;;;;;;3.67;3.67;;;;;12.60;100.00;100246.47;5102641;27;45444;-75
2023/01/08 02:53:36;;;;;;;;;1.67;1.00;;;;;12.38;100.00;100228.97;5081512;27;45475;-76
2023/01/08 02:56:07;;;;;;;;;3.67;2.00;;;;;12.58;100.00;100250.38;5101555;27;45226;-76
2023/01/08 02:58:36;;;;;;;;;6.00;4.00;;;;;12.46;100.00;100236.28;5098663;27;45407;-75
2023/01/08 03:01:05;;;;;;;;;3.00;2.67;;;;;12.40;100.00;100247.88;5102838;27;45191;-75
2023/01/08 03:03:32;;;;;;;;;2.33;2.33;;;;;12.18;100.00;100216.75;5098137;27;45269;-75
2023/01/08 03:06:04;;;;;;;;;3.00;2.00;;;;;12.22;100.00;100239.88;5102034;27;45504;-75
2023/01/08 03:08:34;;;;;;;;;4.00;3.00;;;;;12.11;100.00;100202.13;5078032;27;46163;-73
2023/01/08 03:11:04;;;;;;;;;3.00;3.00;;;;;12.39;100.00;100222.50;5100697;27;45419;-73
2023/01/08 03:13:41;;;;;;;;;5.67;3.67;;;;;12.39;100.00;100224.38;5098864;27;45182;-73
2023/01/08 03:16:37;;;;;;;;;3.33;3.00;;;;;12.43;100.00;100226.56;5103763;27;45391;-72
2023/01/08 03:19:15;;;;;;;;;2.00;2.00;;;;;12.37;100.00;100191.84;5091191;27;45737;-72
2023/01/08 03:21:43;;;;;;;;;3.67;3.00;;;;;12.64;100.00;100227.91;5101064;27;45575;-73
2023/01/08 03:24:12;;;;;;;;;4.00;4.00;;;;;12.71;100.00;100228.91;5101407;27;45281;-73
2023/01/08 03:26:39;;;;;;;;;4.00;1.00;;;;;12.54;100.00;100194.53;5101157;27;45498;-73
2023/01/08 03:29:11;;;;;;;;;3.00;2.00;;;;;12.69;100.00;100217.34;5081181;27;47345;-73
2023/01/08 03:31:37;;;;;;;;;4.67;3.00;;;;;12.48;100.00;100194.22;5094341;27;45418;-73
2023/01/08 03:34:04;;;;;;;;;1.33;1.33;;;;;12.65;100.00;100230.44;5095337;27;45345;-72
2023/01/08 03:36:33;;;;;;;;;2.33;2.33;;;;;12.69;100.00;100220.91;5080848;27;45282;-73
2023/01/08 03:39:14;;;;;;;;;3.67;2.00;;;;;12.79;100.00;100226.13;5081567;27;46959;-73
2023/01/08 03:41:40;;;;;;;;;6.00;3.67;;;;;12.65;100.00;100208.63;5094331;27;45416;-73
2023/01/08 03:44:06;;;;;;;;;5.33;4.00;;;;;12.69;100.00;100200.97;5080095;27;45517;-73
2023/01/08 03:46:36;;;;;;;;;3.00;3.00;;;;;12.65;100.00;100207.78;5101355;27;45417;-72
2023/01/08 03:49:05;;;;;;;;;3.67;2.67;;;;;12.63;100.00;100223.47;5099607;27;46687;-73
2023/01/08 03:51:50;;;;;;;;;4.33;3.00;;;;;12.72;100.00;100217.81;5084151;27;45283;-73
2023/01/08 03:54:20;;;;;;;;;1.00;1.00;;;;;12.42;100.00;100185.88;5101605;27;45313;-73
2023/01/08 03:56:45;;;;;;;;;2.67;1.67;;;;;12.36;100.00;100165.63;5106503;27;45574;-73
2023/01/08 03:59:14;;;;;;;;;1.33;1.33;;;;;12.56;100.00;100209.72;5103351;27;45547;-73
2023/01/08 04:01:40;;;;;;;;;5.67;2.00;;;;;12.37;100.00;100188.28;5086334;27;45380;-73
2023/01/08 04:04:06;;;;;;;;;2.33;2.33;;;;;12.38;100.00;100190.84;5102350;27;45430;-73
2023/01/08 04:06:32;;;;;;;;;2.67;2.67;;;;;12.58;100.00;100206.78;5103499;27;45298;-72
2023/01/08 04:08:57;;;;;;;;;3.67;2.67;;;;;12.38;100.00;100160.00;5102231;27;46650;-73
2023/01/08 04:11:23;;;;;;;;;2.00;2.00;;;;;12.55;100.00;100172.59;5104999;27;45195;-73
2023/01/08 04:13:48;;;;;;;;;1.67;1.67;;;;;12.61;100.00;100146.50;5103344;27;45128;-73
2023/01/08 04:16:13;;;;;;;;;2.67;1.00;;;;;12.77;100.00;100170.97;5082567;27;45500;-72
2023/01/08 04:18:39;;;;;;;;;3.67;2.00;;;;;12.57;100.00;100166.94;5081853;27;47059;-73
2023/01/08 04:21:04;;;;;;;;;1.00;1.00;;;;;12.61;100.00;100168.28;5086211;27;45248;-73
2023/01/08 04:23:30;;;;;;;;;3.33;1.33;;;;;12.57;100.00;100153.31;5099972;27;45415;-73
2023/01/08 04:25:55;;;;;;;;;5.00;2.00;;;;;12.59;100.00;100160.28;5105614;27;45391;-73
2023/01/08 04:28:21;;;;;;;;;2.00;1.00;;;;;12.46;100.00;100149.09;5098835;27;45561;-73
2023/01/08 04:30:47;;;;;;;;;1.67;1.67;;;;;12.37;100.00;100131.94;5101543;27;45380;-73
2023/01/08 04:33:12;;;;;;;;;3.33;2.33;;;;;12.45;100.00;100159.16;5084160;27;45321;-74
2023/01/08 04:35:38;;;;;;;;;1.33;1.00;;;;;12.31;100.00;100143.53;5101819;27;45503;-73
2023/01/08 04:38:03;;;;;;;;;1.33;1.33;;;;;12.20;100.00;100132.97;5098458;27;46336;-73
2023/01/08 04:40:31;;;;;;;;;1.00;1.00;;;;;12.15;100.00;100104.56;5099007;27;45451;-73
2023/01/08 04:42:57;;;;;;;;;6.00;3.67;;;;;12.23;100.00;100121.75;5089746;27;45384;-73
2023/01/08 04:45:22;;;;;;;;;2.33;1.67;;;;;12.42;100.00;100134.97;5103388;27;45424;-73
2023/01/08 04:47:47;;;;;;;;;5.00;2.00;;;;;12.25;100.00;100127.88;5098696;27;46556;-73
2023/01/08 04:50:13;;;;;;;;;2.00;2.00;;;;;12.31;100.00;100140.78;5103428;27;45332;-73
2023/01/08 04:52:38;;;;;;;;;3.33;2.00;;;;;12.16;100.00;100115.31;5084012;27;45595;-73
2023/01/08 04:55:04;;;;;;;;;1.67;1.67;;;;;12.32;100.00;100120.72;5105038;27;45393;-73
2023/01/08 04:57:29;;;;;;;;;1.00;1.00;;;;;12.27;100.00;100097.75;5103171;27;46455;-73
2023/01/08 04:59:55;;;;;;;;;1.00;1.00;;;;;12.36;100.00;100116.59;5104773;27;45605;-73
2023/01/08 05:02:20;;;;;;;;;3.00;2.00;;;;;12.40;100.00;100136.19;5084963;27;45508;-73
2023/01/08 05:04:47;;;;;;;;;1.67;1.67;;;;;12.28;100.00;100130.25;5103870;27;45441;-73
2023/01/08 05:07:12;;;;;;;;;1.00;1.00;;;;;12.15;100.00;100094.53;5101032;27;45945;-73
2023/01/08 05:09:38;;;;;;;;;4.33;3.00;;;;;12.22;100.00;100109.16;5102788;27;45434;-73
2023/01/08 05:12:03;;;;;;;;;3.33;2.00;;;;;12.08;100.00;100107.16;5073847;27;45364;-74
2023/01/08 05:14:28;;;;;;;;;2.00;2.00;;;;;11.99;100.00;100068.19;5104824;27;45569;-74
2023/01/08 05:16:54;;;;;;;;;4.00;2.00;;;;;12.02;100.00;100086.91;5100569;27;46250;-73
2023/01/08 05:19:19;;;;;;;;;1.33;1.33;;;;;12.08;100.00;100102.56;5104272;27;45393;-73
2023/01/08 05:21:45;;;;;;;;;1.00;1.00;;;;;12.08;100.00;100112.59;5102877;27;45578;-73
2023/01/08 05:24:10;;;;;;;;;1.33;1.33;;;;;11.91;100.00;100076.38;5103705;27;45396;-73
2023/01/08 05:26:35;;;;;;;;;1.33;1.33;;;;;12.09;100.00;100114.28;5102476;27;46447;-73
2023/01/08 05:29:01;;;;;;;;;3.00;1.00;;;;;12.09;100.00;100073.44;5102655;27;45345;-74
2023/01/08 05:31:26;;;;;;;;;3.00;1.00;;;;;12.11;100.00;100074.13;5084238;27;45689;-73
2023/01/08 05:33:51;;;;;;;;;2.00;2.00;;;;;12.14;100.00;100090.09;5102594;27;45421;-74
2023/01/08 05:36:17;;;;;;;;;1.33;1.33;;;;;12.25;100.00;100107.97;5101620;27;45616;-73
2023/01/08 05:38:42;;;;;;;;;1.00;1.00;;;;;12.17;100.00;100092.50;5101644;27;45156;-73
2023/01/08 05:41:09;;;;;;;;;1.00;1.00;;;;;11.86;100.00;100148.69;5100636;27;45536;-74
2023/01/08 05:43:34;;;;;;;;;1.67;1.67;;;;;11.32;100.00;100126.56;5083770;27;45495;-73
2023/01/08 05:46:01;;;;;;;;;2.00;0.67;;;;;11.42;100.00;100173.47;5098160;27;45688;-74
2023/01/08 05:48:28;;;;;;;;;0.00;0.00;;;;;11.46;100.00;100155.81;5074743;27;45376;-74
2023/01/08 05:50:53;;;;;;;;;0.00;0.00;;;;;11.24;100.00;100124.69;5083804;27;45440;-74
2023/01/08 05:53:18;;;;;;;;;1.00;0.00;;;;;11.26;100.00;100128.06;5101300;27;45539;-73
2023/01/08 05:55:44;;;;;;;;;0.00;0.00;;;;;11.17;100.00;100101.06;5103929;27;46339;-74
2023/01/08 05:58:10;;;;;;;;;0.00;0.00;;;;;11.30;100.00;100134.03;5082193;27;45504;-73
2023/01/08 06:00:37;;;;;;;;;0.00;0.00;;;;;11.04;100.00;100123.25;5102923;27;45515;-73
2023/01/08 06:03:03;;;;;;;;;0.00;0.00;;;;;11.09;100.00;100101.03;5102007;27;45271;-73
2023/01/08 06:05:32;;;;;;;;;0.00;0.00;;;;;11.21;100.00;100124.16;5098847;27;46958;-73
2023/01/08 06:07:58;;;;;;;;;0.00;0.00;;;;;11.13;100.00;100125.00;5100797;27;45389;-73
2023/01/08 06:10:24;;;;;;;;;0.00;0.00;;;;;10.93;100.00;100094.56;5100920;27;45441;-73
2023/01/08 06:12:50;;;;;;;;;0.00;0.00;;;;;11.08;100.00;100118.38;5101986;27;45539;-73
2023/01/08 06:15:16;;;;;;;;;0.00;0.00;;;;;10.86;100.00;100093.50;5081903;27;46547;-74
2023/01/08 06:17:41;;;;;;;;;0.00;0.00;;;;;10.97;100.00;100118.66;5101433;27;45373;-73
2023/01/08 06:20:08;;;;;;;;;1.00;0.00;;;;;10.92;100.00;100117.31;5083951;27;45507;-73
2023/01/08 06:22:33;;;;;;;;;0.00;0.00;;;;;10.84;100.00;100133.59;5079937;28;45523;-73
2023/01/08 06:24:59;;;;;;;;;1.00;0.00;;;;;10.92;100.00;100144.47;5089591;27;45342;-73
2023/01/08 06:27:24;;;;;;;;;0.00;0.00;;;;;10.69;100.00;100118.06;5082631;27;45211;-74
2023/01/08 06:29:49;;;;;;;;;0.00;0.00;;;;;10.82;100.00;100138.31;5097592;27;45213;-74
2023/01/08 06:32:15;;;;;;;;;0.00;0.00;;;;;10.56;100.00;100096.81;5101820;27;45219;-74
2023/01/08 06:34:40;;;;;;;;;0.00;0.00;;;;;10.53;100.00;100105.28;5097468;27;46494;-73
2023/01/08 06:37:05;;;;;;;;;0.00;0.00;;;;;10.61;100.00;100127.03;5082643;27;45797;-73
2023/01/08 06:39:31;;;;;;;;;0.00;0.00;;;;;10.36;100.00;100103.53;5075923;27;47278;-73
2023/01/08 06:41:56;;;;;;;;;0.00;0.00;;;;;10.58;100.00;100149.13;5101282;27;45251;-74
2023/01/08 06:44:22;;;;;;;;;0.00;0.00;;;;;10.42;100.00;100124.59;5099482;27;45566;-74
2023/01/08 06:46:47;;;;;;;;;0.00;0.00;;;;;10.37;100.00;100121.53;5100919;27;45319;-73
2023/01/08 06:49:13;;;;;;;;;1.00;0.00;;;;;10.46;100.00;100139.53;5100244;27;45539;-74
2023/01/08 06:51:39;;;;;;;;;0.00;0.00;;;;;10.44;100.00;100133.44;5080417;28;45465;-73
2023/01/08 06:54:04;;;;;;;;;0.33;0.33;;;;;10.45;100.00;100152.25;5100908;27;45430;-74
2023/01/08 06:56:30;;;;;;;;;1.00;0.00;;;;;10.41;100.00;100131.03;5103605;27;45359;-73
2023/01/08 06:58:55;;;;;;;;;0.00;0.00;;;;;10.34;100.00;100129.97;5100498;27;45514;-73
2023/01/08 07:01:21;;;;;;;;;0.00;0.00;;;;;10.30;100.00;100120.47;5103152;27;45584;-73
2023/01/08 07:03:47;;;;;;;;;0.00;0.00;;;;;10.40;100.00;100159.19;5098140;27;45538;-73
2023/01/08 07:06:18;;;;;;;;;0.00;0.00;;;;;10.45;100.00;100160.41;5100959;27;45390;-73
2023/01/08 07:08:44;;;;;;;;;2.00;0.00;;;;;10.48;100.00;100153.81;5100345;27;45310;-73
2023/01/08 07:11:10;;;;;;;;;0.00;0.00;;;;;10.51;100.00;100148.91;5101517;27;45448;-73
2023/01/08 07:13:36;;;;;;;;;0.67;0.67;;;;;10.46;100.00;100150.41;5100200;27;46480;-74
2023/01/08 07:16:09;;;;;;;;;0.00;0.00;;;;;10.35;100.00;100115.41;5081457;27;45342;-74
2023/01/08 07:18:35;;;;;;;;;1.00;0.00;;;;;10.57;100.00;100146.56;5080422;27;45598;-74
2023/01/08 07:21:01;;;;;;;;;2.67;0.00;;;;;10.46;100.00;100148.53;5085008;27;45363;-74
2023/01/08 07:23:27;;;;;;;;;0.00;0.00;;;;;10.30;100.00;100117.75;5097926;27;45676;-74
2023/01/08 07:25:52;;;;;;;;;1.00;1.00;;;;;10.34;100.00;100151.69;5103093;27;45451;-74
2023/01/08 07:28:18;;;;;;;;;1.00;0.00;;;;;10.38;100.00;100159.34;5098290;27;45641;-74
2023/01/08 07:30:43;;;;;;;;;2.00;0.33;;;;;10.28;100.00;100147.78;5107348;27;45330;-74
2023/01/08 07:33:09;;;;;;;;;0.00;0.00;;;;;10.12;100.00;100121.34;5100514;27;45555;-74
2023/01/08 07:35:34;;;;;;;;;0.00;0.00;;;;;10.34;100.00;100125.41;5104094;27;45421;-74
2023/01/08 07:38:00;;;;;;;;;1.00;1.00;;;;;10.45;100.00;100157.69;5101641;27;45234;-73
2023/01/08 07:40:25;;;;;;;;;0.00;0.00;;;;;10.18;100.00;100091.88;5104660;27;45316;-74
2023/01/08 07:42:58;;;;;;;;;0.00;0.00;;;;;10.21;100.00;100105.16;5103157;27;45431;-74
2023/01/08 07:45:25;;;;;;;;;1.00;0.00;;;;;10.24;100.00;100126.53;5104509;27;45245;-73
2023/01/08 07:47:50;;;;;;;;;0.00;0.00;;;;;10.12;100.00;100094.19;5104113;27;45331;-74
2023/01/08 07:50:16;;;;;;;;;0.00;0.00;;;;;10.24;100.00;100096.66;5103172;27;45247;-73
2023/01/08 07:52:41;;;;;;;;;2.00;0.33;;;;;10.46;100.00;100123.25;5084995;27;45449;-74
2023/01/08 07:55:07;;;;;;;;;3.00;2.00;;;;;10.34;100.00;100098.25;5103246;27;45466;-73
2023/01/08 07:57:32;;;;;;;;;1.00;0.00;;;;;10.35;100.00;100099.09;5082792;27;45465;-73
2023/01/08 07:59:57;;;;;;;;;0.00;0.00;;;;;10.46;100.00;100124.09;5087948;27;45298;-74
2023/01/08 08:02:23;;;;;;;;;0.67;0.00;;;;;10.48;100.00;100121.22;5101723;27;45792;-73
2023/01/08 08:04:48;;;;;;;;;0.00;0.00;;;;;10.42;100.00;100122.72;5103637;27;45251;-74
2023/01/08 08:07:14;;;;;;;;;0.00;0.00;;;;;10.43;100.00;100115.44;5081710;27;45334;-73
2023/01/08 08:09:39;;;;;;;;;2.33;0.00;;;;;10.43;100.00;100119.00;5104787;27;45463;-73
2023/01/08 08:12:04;;;;;;;;;2.00;0.00;;;;;10.34;100.00;100098.25;5082269;27;48376;-73
2023/01/08 08:14:30;;;;;;;;;1.00;1.00;;;;;10.33;100.00;100085.69;5105447;27;45370;-73
2023/01/08 08:16:55;;;;;;;;;1.67;1.67;;;;;10.46;100.00;100090.66;5103278;27;45299;-73
2023/01/08 08:19:20;;;;;;;;;0.00;0.00;;;;;10.47;100.00;100081.50;5104855;27;46008;-75
2023/01/08 08:21:46;;;;;;;;;1.00;1.00;;;;;10.58;100.00;100097.50;5101728;27;46353;-73
2023/01/08 08:24:11;;;;;;;;;0.00;0.00;;;;;10.67;100.00;100099.22;5102325;27;45510;-73
2023/01/08 08:26:36;;;;;;;;;2.67;1.00;;;;;10.74;100.00;100092.09;5100035;27;45147;-73
2023/01/08 08:29:02;;;;;;;;;2.00;0.33;;;;;10.74;100.00;100073.09;5101929;27;45185;-74
2023/01/08 08:31:27;;;;;;;;;0.33;0.33;;;;;10.65;100.00;100049.66;5104724;27;46134;-73
2023/01/08 08:33:53;;;;;;;;;0.67;0.67;;;;;10.79;100.00;100081.59;5085768;27;45310;-73
2023/01/08 08:36:18;;;;;;;;;1.00;1.00;;;;;10.96;100.00;100087.09;5098915;27;45455;-74
2023/01/08 08:38:43;;;;;;;;;1.33;1.33;;;;;11.00;100.00;100099.31;5082971;27;45395;-74
2023/01/08 08:41:09;;;;;;;;;2.00;1.00;;;;;11.05;100.00;100092.34;5081915;27;47007;-75
2023/01/08 08:43:34;;;;;;;;;1.67;0.00;;;;;10.97;100.00;100086.03;5101352;27;45280;-75
2023/01/08 08:46:00;;;;;;;;;0.00;0.00;;;;;10.87;100.00;100067.19;5104022;27;45585;-74
2023/01/08 08:48:25;;;;;;;;;1.00;1.00;;;;;11.03;100.00;100090.84;5083845;27;45697;-72
2023/01/08 08:50:51;;;;;;;;;2.00;2.00;;;;;10.82;100.00;100059.53;5101307;27;46038;-73
2023/01/08 08:53:16;;;;;;;;;1.00;1.00;;;;;10.87;100.00;100049.03;5101850;27;45235;-74
2023/01/08 08:55:42;;;;;;;;;1.33;1.00;;;;;11.09;100.00;100072.00;5103886;27;45524;-72
2023/01/08 08:58:09;;;;;;;;;0.00;0.00;;;;;11.08;100.00;100064.84;5083421;27;45642;-73
2023/01/08 09:00:40;;;;;;;;;0.33;0.33;;;;;11.01;100.00;100046.66;5101062;27;45493;-75
2023/01/08 09:03:05;;;;;;;;;2.00;2.00;;;;;11.02;100.00;100065.53;5101141;27;45250;-75
2023/01/08 09:05:33;;;;;;;;;0.00;0.00;;;;;10.74;100.00;100064.94;5100287;27;45805;-73
2023/01/08 09:07:59;;;;;;;;;1.00;1.00;;;;;10.68;100.00;100029.44;5101674;27;45334;-74
2023/01/08 09:10:24;;;;;;;;;1.00;1.00;;;;;11.10;100.00;100068.25;5100658;27;46523;-72
2023/01/08 09:12:52;;;;;;;;;2.67;1.00;;;;;11.08;100.00;100074.88;5101535;27;45614;-73
2023/01/08 09:15:17;;;;;;;;;0.00;0.00;;;;;10.89;100.00;100059.69;5083954;27;45621;-73
2023/01/08 09:17:42;;;;;;;;;0.00;0.00;;;;;10.77;100.00;100040.16;5079154;27;45180;-73
2023/01/08 09:20:08;;;;;;;;;2.00;2.00;;;;;11.12;100.00;100070.78;5102611;27;46191;-73
2023/01/08 09:22:33;;;;;;;;;1.00;1.00;;;;;10.91;100.00;100053.09;5055497;27;1267886;-72
2023/01/08 09:24:59;;;;;;;;;1.00;1.00;;;;;11.08;100.00;100047.69;5079164;27;45758;-73
2023/01/08 09:27:24;;;;;;;;;0.33;0.33;;;;;11.32;100.00;100062.13;5083613;27;45487;-74
2023/01/08 09:29:50;;;;;;;;;1.00;1.00;;;;;10.87;100.00;100046.31;5078411;27;46969;-75
2023/01/08 09:32:15;;;;;;;;;1.00;0.00;;;;;11.08;100.00;100048.53;5101519;27;45459;-75
2023/01/08 09:34:40;;;;;;;;;1.00;1.00;;;;;11.12;100.00;100039.00;5097820;27;46205;-75
2023/01/08 09:37:06;;;;;;;;;0.00;0.00;;;;;11.11;100.00;100009.25;5101668;27;45486;-74
2023/01/08 09:39:32;;;;;;;;;2.00;0.33;;;;;11.17;100.00;100030.34;5098281;27;45376;-75
2023/01/08 09:42:02;;;;;;;;;2.00;1.00;;;;;11.09;100.00;100004.03;5100827;27;45405;-74
2023/01/08 09:44:34;;;;;;;;;1.67;1.00;;;;;11.38;100.00;100057.03;5081987;27;45413;-74
2023/01/08 09:47:02;;;;;;;;;1.00;1.00;;;;;11.22;100.00;100038.84;5100569;27;45400;-74
2023/01/08 09:49:39;;;;;;;;;1.00;1.00;;;;;11.09;100.00;100060.25;5100878;27;45681;-74
2023/01/08 09:52:05;;;;;;;;;0.00;0.00;;;;;11.24;100.00;100043.09;5082514;27;45262;-74
2023/01/08 09:54:31;;;;;;;;;1.00;1.00;;;;;11.21;100.00;100031.72;5105952;27;45291;-74
2023/01/08 09:56:58;;;;;;;;;0.00;0.00;;;;;11.04;100.00;100030.00;5103176;27;45432;-74
2023/01/08 09:59:25;;;;;;;;;0.00;0.00;;;;;11.23;100.00;100048.72;5102080;27;45717;-75
2023/01/08 10:01:51;;;;;;;;;0.00;0.00;;;;;11.29;100.00;100012.69;5083334;27;45911;-74
2023/01/08 10:04:23;;;;;;;;;2.00;0.00;;;;;11.43;100.00;100069.09;5083095;27;45400;-75
2023/01/08 10:07:20;;;;;;;;;1.67;0.00;;;;;11.59;100.00;100069.09;5098690;27;45515;-75
2023/01/08 10:09:47;;;;;;;;;0.00;0.00;;;;;11.43;100.00;100030.16;5102466;27;46576;-74
2023/01/08 10:12:13;;;;;;;;;1.00;1.00;;;;;11.19;100.00;100014.72;5100861;27;45231;-75
2023/01/08 10:14:46;;;;;;;;;1.67;0.33;;;;;11.53;100.00;100061.63;5103079;27;45409;-75
2023/01/08 10:17:24;;;;;;;;;1.00;1.00;;;;;11.62;100.00;100052.41;5101392;27;44878;-74
2023/01/08 10:19:49;;;;;;;;;5.00;1.00;;;;;11.42;100.00;100040.19;5079499;27;46915;-75
2023/01/08 10:22:18;;;;;;;;;0.00;0.00;;;;;11.46;100.00;100051.59;5100320;27;45474;-74
2023/01/08 10:24:44;;;;;;;;;1.67;0.33;;;;;11.43;100.00;100041.03;5096895;27;45448;-75
2023/01/08 10:27:20;;;;;;;;;1.00;1.00;;;;;11.55;100.00;100051.41;5101491;27;45463;-75
2023/01/08 10:29:45;;;;;;;;;0.00;0.00;;;;;11.60;100.00;100049.03;5081512;27;45954;-75
2023/01/08 10:32:23;;;;;;;;;2.33;0.00;;;;;11.65;100.00;100051.22;5071905;28;45414;-75
2023/01/08 10:34:50;;;;;;;;;2.00;2.00;;;;;11.66;100.00;100070.13;5074675;28;45496;-76
2023/01/08 10:37:26;;;;;;;;;1.00;1.00;;;;;11.58;100.00;100040.19;5097099;27;45683;-76
2023/01/08 10:39:54;;;;;;;;;5.00;1.00;;;;;11.66;100.00;100042.91;5101834;27;46253;-74
2023/01/08 10:42:22;;;;;;;;;3.67;1.00;;;;;11.78;100.00;100046.13;5096702;27;45442;-74
2023/01/08 10:44:59;;;;;;;;;1.00;1.00;;;;;11.75;100.00;100041.06;5074716;27;45556;-74
2023/01/08 10:47:29;;;;;;;;;0.00;0.00;;;;;11.49;100.00;99992.25;5100946;27;45300;-74
2023/01/08 10:49:57;;;;;;;;;3.67;1.33;;;;;11.83;100.00;100032.88;5101782;27;46600;-75
2023/01/08 10:52:26;;;;;;;;;1.67;1.67;;;;;11.69;100.00;100009.03;5100415;27;45526;-75
2023/01/08 10:54:51;;;;;;;;;2.33;0.33;;;;;11.82;100.00;100011.28;5101993;27;45503;-76
2023/01/08 10:57:28;;;;;;;;;3.00;1.00;;;;;12.09;100.00;100017.13;5102970;27;45311;-75
2023/01/08 10:59:54;;;;;;;;;7.00;1.00;;;;;11.95;100.00;99970.72;5102231;27;45439;-73
2023/01/08 11:02:40;;;;;;;;;2.00;0.67;;;;;12.19;100.00;100019.66;5084425;27;46046;-75
2023/01/08 11:05:09;;;;;;;;;3.33;0.33;;;;;12.20;100.00;100024.03;5082586;27;45376;-75
2023/01/08 11:07:35;;;;;;;;;3.00;1.00;;;;;12.24;100.00;100016.38;5073203;27;45229;-75
2023/01/08 11:10:03;;;;;;;;;1.00;1.00;;;;;12.18;100.00;100014.38;5101249;27;45806;-75
2023/01/08 11:12:38;;;;;;;;;4.00;1.00;;;;;11.99;100.00;99985.66;5102182;27;45387;-76
2023/01/08 11:15:26;;;;;;;;;1.00;0.33;;;;;12.23;100.00;100006.50;5084078;27;45344;-76
2023/01/08 11:17:51;;;;;;;;;0.00;0.00;;;;;12.06;100.00;99948.53;5086603;27;45409;-76
2023/01/08 11:20:43;;;;;;;;;0.00;0.00;;;;;12.63;100.00;99986.38;5082398;27;46682;-78